createdAt,value
2022-08-31T00:00:13.447Z,53.50
2022-08-31T00:01:13.427Z,53.50
2022-08-31T00:02:13.466Z,53.39
2022-08-31T00:03:13.433Z,53.59
2022-08-31T00:04:13.454Z,53.30
2022-08-31T00:05:13.366Z,53.30
2022-08-31T00:06:13.370Z,53.39
2022-08-31T00:07:13.356Z,53.70
2022-08-31T00:08:13.344Z,53.59
2022-08-31T00:09:13.363Z,53.90
2022-08-31T00:10:13.363Z,54.00
2022-08-31T00:11:13.306Z,53.92
2022-08-31T00:12:13.299Z,54.33
2022-08-31T00:13:13.304Z,54.13
2022-08-31T00:14:13.588Z,54.22
2022-08-31T00:15:13.275Z,54.13
2022-08-31T00:16:13.286Z,54.13
2022-08-31T00:17:13.213Z,54.13
2022-08-31T00:18:13.208Z,53.92
2022-08-31T00:19:13.181Z,54.33
2022-08-31T00:20:32.388Z,54.53
2022-08-31T00:21:13.197Z,54.53
2022-08-31T00:22:13.161Z,54.63
2022-08-31T00:23:13.130Z,54.63
2022-08-31T00:24:13.132Z,54.33
2022-08-31T00:25:13.106Z,54.33
2022-08-31T00:26:13.148Z,53.92
2022-08-31T00:27:13.079Z,54.13
2022-08-31T00:28:13.078Z,53.92
2022-08-31T00:29:13.063Z,53.70
2022-08-31T00:30:13.054Z,53.80
2022-08-31T00:31:13.046Z,53.80
2022-08-31T00:32:13.057Z,53.80
2022-08-31T00:33:12.994Z,53.80
2022-08-31T00:34:13.011Z,54.40
2022-08-31T00:35:12.969Z,54.20
2022-08-31T00:36:12.982Z,54.10
2022-08-31T00:37:12.977Z,54.40
2022-08-31T00:38:12.971Z,54.53
2022-08-31T00:39:12.916Z,54.83
2022-08-31T00:40:12.983Z,54.72
2022-08-31T00:41:12.895Z,54.83
2022-08-31T00:42:12.895Z,55.33
2022-08-31T00:43:12.950Z,55.23
2022-08-31T00:44:12.865Z,55.53
2022-08-31T00:45:12.841Z,55.33
2022-08-31T00:46:12.899Z,56.34
2022-08-31T00:47:12.808Z,55.76
2022-08-31T00:48:12.845Z,55.96
2022-08-31T00:49:12.781Z,56.26
2022-08-31T00:50:12.819Z,56.26
2022-08-31T00:51:13.104Z,56.36
2022-08-31T00:52:12.768Z,56.26
2022-08-31T00:53:12.726Z,57.26
2022-08-31T00:54:12.771Z,57.37
2022-08-31T00:55:12.718Z,57.90
2022-08-31T00:56:12.722Z,58.20
2022-08-31T00:57:12.676Z,58.60
2022-08-31T00:58:12.682Z,58.80
2022-08-31T00:59:12.684Z,59.30
2022-08-31T01:00:12.663Z,60.00
2022-08-31T01:01:12.714Z,60.81
2022-08-31T01:02:12.657Z,61.71
2022-08-31T01:03:12.608Z,63.02
2022-08-31T01:04:12.599Z,64.33
2022-08-31T01:05:12.622Z,64.93
2022-08-31T01:06:12.586Z,65.73
2022-08-31T01:07:12.555Z,66.03
2022-08-31T01:08:12.544Z,67.04
2022-08-31T01:09:12.518Z,67.14
2022-08-31T01:10:12.555Z,67.44
2022-08-31T01:11:12.492Z,67.74
2022-08-31T01:12:12.499Z,67.94
2022-08-31T01:13:12.464Z,68.05
2022-08-31T01:14:12.488Z,68.25
2022-08-31T01:15:12.451Z,68.05
2022-08-31T01:16:12.503Z,69.25
2022-08-31T01:17:12.419Z,70.26
2022-08-31T01:18:12.416Z,70.76
2022-08-31T01:19:12.388Z,71.56
2022-08-31T01:20:12.387Z,71.90
2022-08-31T01:21:12.404Z,72.41
2022-08-31T01:22:12.359Z,72.87
2022-08-31T01:23:12.343Z,73.61
2022-08-31T01:24:12.336Z,74.01
2022-08-31T01:25:12.324Z,74.82
2022-08-31T01:26:12.295Z,75.42
2022-08-31T01:27:12.326Z,75.72
2022-08-31T01:28:12.287Z,75.72
2022-08-31T01:29:12.278Z,75.82
2022-08-31T01:30:12.256Z,76.63
2022-08-31T01:31:12.279Z,77.23
2022-08-31T01:32:12.241Z,77.33
2022-08-31T01:33:12.218Z,77.73
2022-08-31T01:34:12.185Z,77.53
2022-08-31T01:35:12.188Z,78.03
2022-08-31T01:36:15.975Z,78.14
2022-08-31T01:37:12.164Z,78.14
2022-08-31T01:38:12.187Z,78.34
2022-08-31T01:39:12.135Z,78.54
2022-08-31T01:40:12.135Z,78.44
2022-08-31T01:41:13.105Z,78.64
2022-08-31T01:42:12.086Z,79.28
2022-08-31T01:43:12.119Z,79.08
2022-08-31T01:44:12.052Z,79.48
2022-08-31T01:45:12.055Z,79.18
2022-08-31T01:46:12.035Z,79.48
2022-08-31T01:47:12.085Z,79.68
2022-08-31T01:48:12.010Z,79.48
2022-08-31T01:49:12.035Z,79.79
2022-08-31T01:50:11.973Z,79.79
2022-08-31T01:51:12.444Z,80.19
2022-08-31T01:52:11.951Z,80.08
2022-08-31T01:53:11.999Z,80.39
2022-08-31T01:54:11.959Z,80.39
2022-08-31T01:55:11.926Z,80.58
2022-08-31T01:56:11.901Z,80.89
2022-08-31T01:57:11.900Z,81.19
2022-08-31T01:58:11.868Z,81.49
2022-08-31T01:59:11.875Z,81.29
2022-08-31T02:00:11.881Z,81.49
2022-08-31T02:01:33.977Z,81.39
2022-08-31T02:02:11.860Z,81.59
2022-08-31T02:03:11.876Z,81.59
2022-08-31T02:04:11.792Z,81.70
2022-08-31T02:05:11.827Z,81.39
2022-08-31T02:06:11.778Z,81.29
2022-08-31T02:07:11.767Z,81.09
2022-08-31T02:08:11.741Z,81.09
2022-08-31T02:09:11.742Z,81.49
2022-08-31T02:10:11.722Z,81.39
2022-08-31T02:11:11.749Z,81.29
2022-08-31T02:12:12.719Z,81.53
2022-08-31T02:13:11.783Z,81.43
2022-08-31T02:14:11.663Z,82.14
2022-08-31T02:15:11.668Z,82.04
2022-08-31T02:16:11.727Z,82.04
2022-08-31T02:17:11.635Z,82.30
2022-08-31T02:18:12.075Z,82.34
2022-08-31T02:19:11.607Z,82.50
2022-08-31T02:20:11.586Z,82.70
2022-08-31T02:21:11.579Z,82.70
2022-08-31T02:22:11.589Z,82.54
2022-08-31T02:23:11.669Z,82.54
2022-08-31T02:24:11.531Z,82.74
2022-08-31T02:25:11.524Z,82.44
2022-08-31T02:26:11.499Z,83.25
2022-08-31T02:27:11.530Z,83.65
2022-08-31T02:28:11.468Z,83.14
2022-08-31T02:29:11.481Z,82.94
2022-08-31T02:30:11.454Z,83.45
2022-08-31T02:31:11.545Z,83.34
2022-08-31T02:32:20.168Z,83.25
2022-08-31T02:33:11.533Z,83.54
2022-08-31T02:34:11.429Z,83.45
2022-08-31T02:35:11.385Z,83.34
2022-08-31T02:36:11.360Z,83.54
2022-08-31T02:37:11.361Z,83.65
2022-08-31T02:38:11.375Z,83.34
2022-08-31T02:39:11.354Z,83.84
2022-08-31T02:40:12.253Z,83.54
2022-08-31T02:41:11.323Z,83.75
2022-08-31T02:42:11.288Z,84.05
2022-08-31T02:43:11.313Z,83.84
2022-08-31T02:44:11.291Z,83.84
2022-08-31T02:45:11.264Z,83.75
2022-08-31T02:46:11.314Z,84.65
2022-08-31T02:47:11.235Z,84.65
2022-08-31T02:48:11.209Z,84.29
2022-08-31T02:49:11.235Z,84.49
2022-08-31T02:50:11.178Z,84.19
2022-08-31T02:51:11.186Z,84.29
2022-08-31T02:52:11.157Z,83.89
2022-08-31T02:53:11.210Z,83.89
2022-08-31T02:54:11.179Z,83.48
2022-08-31T02:55:11.163Z,83.48
2022-08-31T02:56:11.100Z,82.68
2022-08-31T02:57:11.116Z,82.18
2022-08-31T02:58:11.075Z,81.87
2022-08-31T02:59:11.078Z,81.47
2022-08-31T03:00:11.077Z,81.47
2022-08-31T03:01:11.164Z,81.17
2022-08-31T03:02:11.150Z,81.27
2022-08-31T03:03:11.147Z,80.97
2022-08-31T03:04:11.005Z,80.57
2022-08-31T03:05:10.995Z,80.57
2022-08-31T03:06:11.004Z,80.57
2022-08-31T03:07:10.972Z,80.16
2022-08-31T03:08:10.941Z,80.26
2022-08-31T03:09:10.941Z,79.96
2022-08-31T03:10:10.923Z,80.16
2022-08-31T03:11:10.954Z,80.36
2022-08-31T03:12:10.882Z,80.16
2022-08-31T03:13:10.934Z,79.86
2022-08-31T03:14:10.866Z,79.36
2022-08-31T03:15:10.864Z,78.96
2022-08-31T03:16:10.929Z,78.85
2022-08-31T03:17:10.870Z,78.65
2022-08-31T03:18:10.808Z,78.65
2022-08-31T03:19:10.809Z,78.75
2022-08-31T03:20:10.798Z,78.75
2022-08-31T03:21:10.784Z,78.75
2022-08-31T03:22:10.802Z,78.75
2022-08-31T03:23:10.811Z,78.75
2022-08-31T03:24:10.738Z,78.85
2022-08-31T03:25:10.730Z,78.65
2022-08-31T03:26:10.706Z,78.75
2022-08-31T03:27:10.707Z,78.99
2022-08-31T03:28:10.705Z,79.19
2022-08-31T03:29:10.685Z,79.09
2022-08-31T03:30:10.650Z,79.39
2022-08-31T03:31:10.688Z,79.19
2022-08-31T03:32:10.623Z,79.49
2022-08-31T03:33:10.674Z,79.60
2022-08-31T03:34:10.592Z,79.80
2022-08-31T03:35:10.599Z,79.69
2022-08-31T03:36:10.585Z,79.69
2022-08-31T03:37:10.568Z,79.90
2022-08-31T03:38:10.545Z,79.90
2022-08-31T03:39:10.580Z,79.90
2022-08-31T03:40:10.557Z,80.00
2022-08-31T03:41:10.521Z,80.00
2022-08-31T03:42:10.499Z,80.10
2022-08-31T03:43:10.489Z,80.10
2022-08-31T03:44:10.498Z,80.30
2022-08-31T03:45:10.470Z,80.00
2022-08-31T03:46:12.083Z,79.80
2022-08-31T03:47:10.437Z,79.60
2022-08-31T03:48:12.838Z,79.49
2022-08-31T03:49:10.411Z,79.29
2022-08-31T03:50:10.415Z,79.19
2022-08-31T03:51:10.385Z,78.99
2022-08-31T03:52:10.357Z,78.89
2022-08-31T03:53:10.364Z,78.99
2022-08-31T03:54:10.324Z,78.69
2022-08-31T03:55:10.369Z,78.49
2022-08-31T03:56:10.303Z,78.28
2022-08-31T03:57:10.301Z,78.19
2022-08-31T03:58:10.277Z,77.78
2022-08-31T03:59:10.278Z,77.58
2022-08-31T04:00:10.249Z,77.48
2022-08-31T04:01:10.308Z,77.58
2022-08-31T04:02:10.308Z,77.82
2022-08-31T04:03:10.268Z,78.02
2022-08-31T04:04:10.201Z,78.08
2022-08-31T04:05:10.198Z,77.98
2022-08-31T04:06:10.198Z,78.02
2022-08-31T04:07:10.172Z,77.92
2022-08-31T04:08:10.142Z,77.72
2022-08-31T04:09:10.146Z,77.62
2022-08-31T04:10:10.124Z,77.31
2022-08-31T04:11:10.120Z,77.11
2022-08-31T04:12:10.115Z,77.01
2022-08-31T04:13:10.088Z,77.01
2022-08-31T04:14:10.060Z,77.01
2022-08-31T04:15:10.061Z,77.11
2022-08-31T04:16:10.086Z,76.91
2022-08-31T04:17:10.066Z,76.51
2022-08-31T04:18:10.027Z,76.40
2022-08-31T04:19:10.010Z,76.00
2022-08-31T04:20:09.990Z,75.70
2022-08-31T04:21:09.980Z,75.40
2022-08-31T04:22:09.974Z,75.10
2022-08-31T04:23:09.990Z,74.90
2022-08-31T04:24:09.931Z,74.90
2022-08-31T04:25:09.875Z,74.79
2022-08-31T04:26:09.854Z,74.79
2022-08-31T04:27:09.849Z,74.69
2022-08-31T04:28:09.853Z,74.79
2022-08-31T04:29:13.443Z,74.79
2022-08-31T04:30:09.798Z,74.69
2022-08-31T04:31:09.838Z,74.49
2022-08-31T04:32:09.774Z,74.49
2022-08-31T04:33:09.791Z,74.63
2022-08-31T04:34:09.767Z,74.63
2022-08-31T04:35:09.755Z,74.63
2022-08-31T04:36:09.719Z,74.63
2022-08-31T04:37:09.718Z,74.63
2022-08-31T04:38:10.077Z,74.73
2022-08-31T04:39:09.743Z,74.83
2022-08-31T04:40:09.704Z,74.83
2022-08-31T04:41:09.663Z,74.73
2022-08-31T04:42:09.640Z,74.83
2022-08-31T04:43:09.632Z,75.13
2022-08-31T04:44:09.630Z,75.34
2022-08-31T04:45:09.636Z,75.63
2022-08-31T04:46:09.657Z,75.84
2022-08-31T04:47:09.589Z,75.54
2022-08-31T04:48:09.563Z,75.74
2022-08-31T04:49:09.585Z,75.63
2022-08-31T04:50:09.564Z,75.63
2022-08-31T04:51:09.548Z,75.74
2022-08-31T04:52:09.498Z,75.54
2022-08-31T04:53:09.503Z,75.54
2022-08-31T04:54:09.485Z,75.37
2022-08-31T04:55:09.483Z,75.47
2022-08-31T04:56:09.478Z,75.37
2022-08-31T04:57:09.450Z,75.47
2022-08-31T04:58:09.422Z,75.47
2022-08-31T04:59:09.443Z,75.47
2022-08-31T05:00:09.407Z,75.57
2022-08-31T05:01:09.575Z,75.37
2022-08-31T05:02:09.498Z,75.67
2022-08-31T05:03:09.385Z,76.18
2022-08-31T05:04:09.359Z,76.38
2022-08-31T05:05:09.348Z,77.19
2022-08-31T05:06:09.316Z,78.39
2022-08-31T05:07:09.382Z,78.66
2022-08-31T05:08:09.290Z,78.46
2022-08-31T05:09:09.291Z,78.66
2022-08-31T05:10:09.283Z,78.86
2022-08-31T05:11:09.272Z,78.66
2022-08-31T05:12:09.281Z,78.16
2022-08-31T05:13:09.242Z,78.16
2022-08-31T05:14:09.206Z,78.59
2022-08-31T05:15:09.218Z,78.80
2022-08-31T05:16:09.277Z,78.80
2022-08-31T05:17:13.733Z,79.00
2022-08-31T05:18:09.201Z,79.21
2022-08-31T05:19:09.154Z,79.50
2022-08-31T05:20:09.131Z,79.61
2022-08-31T05:21:09.134Z,79.61
2022-08-31T05:22:09.116Z,79.61
2022-08-31T05:23:09.151Z,79.50
2022-08-31T05:24:09.081Z,79.81
2022-08-31T05:25:09.091Z,80.11
2022-08-31T05:26:09.059Z,80.31
2022-08-31T05:27:09.052Z,80.31
2022-08-31T05:28:09.027Z,80.82
2022-08-31T05:29:09.089Z,81.02
2022-08-31T05:30:09.019Z,81.42
2022-08-31T05:31:09.130Z,81.73
2022-08-31T05:32:08.965Z,82.03
2022-08-31T05:33:08.980Z,82.33
2022-08-31T05:34:08.973Z,82.53
2022-08-31T05:35:08.948Z,82.53
2022-08-31T05:36:08.921Z,82.43
2022-08-31T05:37:08.948Z,82.43
2022-08-31T05:38:08.897Z,82.53
2022-08-31T05:39:08.893Z,82.43
2022-08-31T05:40:08.983Z,82.43
2022-08-31T05:41:08.873Z,82.43
2022-08-31T05:42:08.857Z,82.64
2022-08-31T05:43:08.823Z,82.53
2022-08-31T05:44:08.828Z,82.43
2022-08-31T05:45:08.826Z,82.23
2022-08-31T05:46:10.502Z,82.53
2022-08-31T05:47:08.811Z,82.33
2022-08-31T05:48:08.772Z,82.64
2022-08-31T05:49:08.743Z,82.59
2022-08-31T05:50:08.745Z,82.70
2022-08-31T05:51:08.748Z,82.79
2022-08-31T05:52:08.714Z,82.50
2022-08-31T05:53:08.700Z,81.89
2022-08-31T05:54:08.683Z,81.38
2022-08-31T05:55:08.658Z,80.88
2022-08-31T05:56:08.705Z,80.47
2022-08-31T05:57:08.640Z,79.87
2022-08-31T05:58:08.635Z,79.47
2022-08-31T05:59:08.616Z,79.47
2022-08-31T06:00:08.621Z,79.27
2022-08-31T06:01:08.586Z,79.27
2022-08-31T06:02:08.666Z,78.86
2022-08-31T06:03:08.594Z,78.36
2022-08-31T06:04:08.578Z,78.26
2022-08-31T06:05:08.611Z,77.86
2022-08-31T06:06:08.523Z,77.42
2022-08-31T06:07:08.539Z,76.81
2022-08-31T06:08:13.060Z,76.00
2022-08-31T06:09:08.478Z,75.70
2022-08-31T06:10:08.474Z,75.70
2022-08-31T06:11:08.445Z,75.70
2022-08-31T06:12:08.465Z,75.30
2022-08-31T06:13:08.445Z,74.99
2022-08-31T06:14:08.422Z,74.79
2022-08-31T06:15:08.397Z,74.69
2022-08-31T06:16:08.476Z,74.79
2022-08-31T06:17:08.369Z,74.19
2022-08-31T06:18:08.406Z,73.99
2022-08-31T06:19:08.347Z,74.08
2022-08-31T06:20:08.346Z,74.15
2022-08-31T06:21:08.330Z,74.05
2022-08-31T06:22:08.346Z,73.95
2022-08-31T06:23:08.290Z,73.75
2022-08-31T06:24:08.325Z,73.85
2022-08-31T06:25:08.262Z,73.25
2022-08-31T06:26:08.297Z,73.25
2022-08-31T06:27:08.250Z,72.64
2022-08-31T06:28:08.265Z,72.74
2022-08-31T06:29:08.248Z,72.74
2022-08-31T06:30:08.208Z,72.44
2022-08-31T06:31:08.245Z,72.34
2022-08-31T06:32:08.404Z,72.34
2022-08-31T06:33:08.164Z,72.44
2022-08-31T06:34:08.153Z,72.44
2022-08-31T06:35:08.153Z,72.41
2022-08-31T06:36:08.133Z,72.31
2022-08-31T06:37:08.105Z,72.11
2022-08-31T06:38:08.114Z,72.11
2022-08-31T06:39:08.078Z,71.30
2022-08-31T06:40:08.156Z,71.30
2022-08-31T06:41:08.048Z,71.40
2022-08-31T06:42:08.048Z,70.79
2022-08-31T06:43:08.127Z,69.99
2022-08-31T06:44:08.022Z,69.96
2022-08-31T06:45:07.991Z,70.06
2022-08-31T06:46:08.132Z,69.56
2022-08-31T06:47:07.965Z,69.45
2022-08-31T06:48:07.980Z,69.42
2022-08-31T06:49:08.412Z,69.22
2022-08-31T06:50:07.945Z,68.68
2022-08-31T06:51:07.955Z,68.38
2022-08-31T06:52:07.923Z,67.68
2022-08-31T06:53:07.895Z,67.27
2022-08-31T06:54:27.850Z,67.04
2022-08-31T06:55:07.872Z,67.04
2022-08-31T06:56:16.425Z,66.54
2022-08-31T06:57:07.881Z,66.20
2022-08-31T06:58:07.864Z,66.00
2022-08-31T06:59:07.817Z,65.70
2022-08-31T07:00:07.811Z,65.70
2022-08-31T07:01:07.893Z,65.41
2022-08-31T07:02:07.860Z,65.30
2022-08-31T07:03:07.823Z,65.00
2022-08-31T07:04:07.757Z,65.20
2022-08-31T07:05:08.438Z,65.41
2022-08-31T07:06:07.783Z,65.73
2022-08-31T07:07:07.704Z,66.03
2022-08-31T07:09:04.243Z,65.84
2022-08-31T07:10:05.153Z,65.94
2022-08-31T07:11:05.131Z,65.94
2022-08-31T07:12:05.134Z,66.03
2022-08-31T07:13:05.102Z,66.34
2022-08-31T07:14:05.138Z,66.64
2022-08-31T07:15:05.084Z,66.54
2022-08-31T07:16:05.206Z,66.84
2022-08-31T07:17:05.052Z,66.87
2022-08-31T07:18:08.373Z,67.27
2022-08-31T07:19:05.051Z,67.58
2022-08-31T07:20:05.053Z,67.58
2022-08-31T07:21:05.011Z,67.47
2022-08-31T07:22:05.002Z,67.68
2022-08-31T07:23:05.007Z,67.71
2022-08-31T07:24:04.979Z,68.01
2022-08-31T07:25:04.945Z,68.11
2022-08-31T07:26:04.974Z,68.21
2022-08-31T07:27:04.911Z,68.51
2022-08-31T07:28:04.916Z,68.31
2022-08-31T07:29:04.899Z,68.62
2022-08-31T07:30:04.903Z,68.55
2022-08-31T07:31:04.924Z,68.75
2022-08-31T07:32:04.912Z,68.95
2022-08-31T07:33:04.843Z,69.02
2022-08-31T07:34:04.890Z,68.91
2022-08-31T07:35:04.811Z,68.91
2022-08-31T07:36:04.821Z,69.12
2022-08-31T07:37:04.785Z,68.91
2022-08-31T07:38:04.816Z,68.91
2022-08-31T07:39:04.763Z,68.91
2022-08-31T07:40:07.622Z,68.82
2022-08-31T07:41:04.847Z,68.82
2022-08-31T07:42:04.736Z,68.75
2022-08-31T07:43:04.743Z,69.15
2022-08-31T07:44:04.739Z,69.02
2022-08-31T07:45:04.695Z,69.22
2022-08-31T07:46:04.752Z,69.32
2022-08-31T07:47:04.661Z,69.32
2022-08-31T07:48:04.653Z,69.02
2022-08-31T07:49:04.625Z,68.91
2022-08-31T07:50:04.668Z,68.82
2022-08-31T07:51:04.604Z,68.82
2022-08-31T07:52:04.607Z,68.71
2022-08-31T07:53:04.578Z,68.62
2022-08-31T07:54:04.607Z,68.48
2022-08-31T07:55:04.583Z,68.38
2022-08-31T07:56:04.586Z,68.18
2022-08-31T07:57:04.548Z,68.08
2022-08-31T07:58:04.640Z,67.88
2022-08-31T07:59:04.542Z,67.74
2022-08-31T08:00:04.501Z,67.44
2022-08-31T08:01:04.518Z,67.35
2022-08-31T08:02:04.611Z,67.24
2022-08-31T08:03:04.495Z,67.04
2022-08-31T08:04:05.121Z,67.14
2022-08-31T08:05:04.442Z,67.04
2022-08-31T08:06:04.424Z,67.14
2022-08-31T08:07:04.440Z,67.24
2022-08-31T08:08:04.400Z,67.04
2022-08-31T08:09:21.990Z,66.84
2022-08-31T08:10:04.416Z,66.84
2022-08-31T08:11:04.353Z,66.61
2022-08-31T08:12:04.345Z,66.41
2022-08-31T08:13:05.253Z,66.11
2022-08-31T08:14:08.483Z,65.67
2022-08-31T08:15:04.296Z,65.57
2022-08-31T08:16:04.371Z,65.57
2022-08-31T08:17:04.285Z,65.54
2022-08-31T08:18:04.314Z,65.74
2022-08-31T08:19:04.252Z,65.01
2022-08-31T08:20:04.247Z,64.81
2022-08-31T08:21:04.218Z,64.71
2022-08-31T08:22:04.217Z,64.07
2022-08-31T08:23:04.193Z,64.18
2022-08-31T08:24:04.214Z,63.78
2022-08-31T08:25:04.163Z,63.78
2022-08-31T08:26:04.166Z,63.57
2022-08-31T08:27:04.140Z,63.87
2022-08-31T08:28:22.637Z,63.24
2022-08-31T08:29:04.188Z,62.61
2022-08-31T08:30:04.117Z,61.65
2022-08-31T08:31:04.200Z,60.72
2022-08-31T08:32:04.098Z,60.39
2022-08-31T08:33:04.095Z,60.29
2022-08-31T08:34:04.057Z,59.77
2022-08-31T08:35:04.066Z,59.17
2022-08-31T08:36:04.044Z,59.23
2022-08-31T08:37:04.016Z,58.84
2022-08-31T08:38:07.745Z,58.21
2022-08-31T08:39:03.988Z,57.28
2022-08-31T08:40:04.073Z,56.85
2022-08-31T08:41:03.955Z,56.36
2022-08-31T08:42:03.982Z,56.46
2022-08-31T08:43:03.932Z,56.26
2022-08-31T08:44:03.929Z,55.93
2022-08-31T08:45:03.924Z,56.03
2022-08-31T08:46:25.206Z,55.93
2022-08-31T08:47:03.885Z,55.63
2022-08-31T08:48:03.897Z,55.43
2022-08-31T08:49:03.864Z,55.63
2022-08-31T08:50:03.857Z,56.16
2022-08-31T08:51:03.886Z,56.59
2022-08-31T08:52:03.832Z,56.79
2022-08-31T08:53:03.803Z,56.68
2022-08-31T08:54:03.806Z,56.98
2022-08-31T08:55:03.781Z,57.18
2022-08-31T08:56:23.123Z,57.41
2022-08-31T08:57:03.785Z,58.04
2022-08-31T08:58:03.751Z,58.44
2022-08-31T08:59:06.307Z,58.44
2022-08-31T09:00:03.751Z,58.24
2022-08-31T09:01:03.744Z,58.04
2022-08-31T09:02:03.834Z,57.84
2022-08-31T09:03:10.988Z,58.04
2022-08-31T09:04:03.872Z,58.01
2022-08-31T09:05:03.648Z,57.68
2022-08-31T09:06:03.663Z,57.18
2022-08-31T09:07:03.636Z,56.59
2022-08-31T09:08:03.654Z,56.76
2022-08-31T09:09:03.601Z,56.68
2022-08-31T09:10:03.601Z,56.26
2022-08-31T09:11:03.659Z,56.06
2022-08-31T09:12:03.586Z,55.73
2022-08-31T09:13:03.578Z,55.63
2022-08-31T09:14:03.544Z,55.93
2022-08-31T09:15:03.638Z,55.51
2022-08-31T09:16:03.620Z,55.43
2022-08-31T09:17:03.495Z,55.73
2022-08-31T09:18:03.515Z,55.33
2022-08-31T09:19:03.499Z,54.31
2022-08-31T09:20:03.477Z,54.41
2022-08-31T09:21:03.471Z,54.61
2022-08-31T09:22:03.468Z,54.49
2022-08-31T09:23:03.418Z,53.56
2022-08-31T09:24:03.487Z,52.97
2022-08-31T09:25:03.398Z,52.34
2022-08-31T09:26:08.021Z,52.34
2022-08-31T09:27:03.376Z,52.54
2022-08-31T09:28:03.367Z,52.54
2022-08-31T09:29:03.347Z,52.67
2022-08-31T09:30:03.373Z,53.09
2022-08-31T09:31:03.442Z,53.41
2022-08-31T09:32:06.296Z,53.94
2022-08-31T09:33:03.299Z,54.34
2022-08-31T09:34:03.289Z,54.34
2022-08-31T09:35:03.317Z,54.24
2022-08-31T09:36:03.271Z,54.11
2022-08-31T09:37:03.243Z,53.91
2022-08-31T09:38:03.249Z,53.61
2022-08-31T09:39:03.256Z,53.91
2022-08-31T09:40:07.197Z,53.91
2022-08-31T09:41:03.274Z,54.01
2022-08-31T09:42:03.204Z,54.01
2022-08-31T09:43:03.174Z,53.61
2022-08-31T09:44:03.169Z,53.78
2022-08-31T09:45:03.137Z,53.59
2022-08-31T09:46:03.257Z,53.69
2022-08-31T09:47:03.134Z,53.69
2022-08-31T09:48:03.143Z,53.78
2022-08-31T09:49:03.123Z,53.39
2022-08-31T09:50:03.123Z,53.69
2022-08-31T09:51:03.093Z,53.39
2022-08-31T09:52:03.163Z,53.29
2022-08-31T09:53:03.072Z,53.49
2022-08-31T09:54:03.054Z,53.78
2022-08-31T09:55:03.029Z,53.56
2022-08-31T09:56:03.091Z,53.06
2022-08-31T09:57:03.046Z,52.86
2022-08-31T09:58:03.017Z,52.97
2022-08-31T09:59:02.991Z,53.36
2022-08-31T10:00:02.987Z,52.97
2022-08-31T10:01:02.986Z,52.47
2022-08-31T10:02:06.087Z,52.54
2022-08-31T10:03:06.559Z,52.54
2022-08-31T10:04:02.935Z,52.02
2022-08-31T10:05:02.942Z,51.70
2022-08-31T10:06:02.886Z,51.60
2022-08-31T10:07:02.864Z,51.32
2022-08-31T10:08:02.895Z,51.42
2022-08-31T10:09:02.853Z,51.82
2022-08-31T10:10:02.856Z,52.24
2022-08-31T10:11:02.825Z,52.32
2022-08-31T10:12:02.828Z,52.32
2022-08-31T10:13:02.785Z,52.22
2022-08-31T10:14:02.836Z,51.92
2022-08-31T10:15:02.811Z,51.82
2022-08-31T10:16:02.782Z,52.04
2022-08-31T10:17:02.772Z,52.04
2022-08-31T10:18:02.768Z,52.44
2022-08-31T10:19:02.735Z,52.67
2022-08-31T10:20:02.719Z,53.04
2022-08-31T10:21:02.725Z,52.74
2022-08-31T10:22:02.682Z,52.12
2022-08-31T10:23:02.698Z,51.82
2022-08-31T10:24:02.691Z,51.72
2022-08-31T10:25:02.677Z,51.92
2022-08-31T10:26:02.658Z,52.04
2022-08-31T10:27:02.614Z,51.84
2022-08-31T10:28:02.621Z,52.24
2022-08-31T10:29:02.610Z,52.67
2022-08-31T10:30:02.635Z,52.67
2022-08-31T10:31:02.595Z,52.97
2022-08-31T10:32:02.558Z,53.36
2022-08-31T10:33:02.529Z,53.36
2022-08-31T10:34:02.540Z,52.86
2022-08-31T10:35:02.521Z,52.76
2022-08-31T10:36:02.563Z,52.97
2022-08-31T10:37:02.487Z,52.67
2022-08-31T10:38:02.493Z,52.67
2022-08-31T10:39:02.460Z,52.76
2022-08-31T10:40:02.547Z,52.67
2022-08-31T10:41:02.503Z,52.67
2022-08-31T10:42:02.437Z,53.16
2022-08-31T10:43:02.401Z,53.06
2022-08-31T10:44:02.408Z,52.97
2022-08-31T10:45:02.377Z,53.06
2022-08-31T10:46:02.453Z,53.36
2022-08-31T10:47:02.377Z,53.19
2022-08-31T10:48:02.360Z,53.69
2022-08-31T10:49:02.348Z,54.21
2022-08-31T10:50:02.313Z,54.94
2022-08-31T10:51:02.328Z,55.56
2022-08-31T10:52:02.346Z,55.76
2022-08-31T10:53:02.873Z,55.96
2022-08-31T10:54:02.262Z,55.96
2022-08-31T10:55:02.282Z,56.38
2022-08-31T10:56:02.248Z,56.09
2022-08-31T10:57:02.251Z,56.81
2022-08-31T10:58:02.239Z,57.01
2022-08-31T10:59:02.235Z,57.01
2022-08-31T11:00:02.181Z,57.11
2022-08-31T11:01:02.262Z,57.34
2022-08-31T11:02:02.199Z,58.06
2022-08-31T11:03:02.198Z,58.17
2022-08-31T11:04:02.198Z,58.17
2022-08-31T11:05:02.246Z,58.06
2022-08-31T11:06:02.128Z,58.17
2022-08-31T11:07:02.118Z,58.26
2022-08-31T11:08:02.084Z,58.26
2022-08-31T11:09:02.144Z,57.97
2022-08-31T11:10:02.070Z,58.06
2022-08-31T11:11:02.074Z,57.84
2022-08-31T11:12:02.160Z,58.17
2022-08-31T11:13:02.073Z,58.76
2022-08-31T11:14:02.057Z,59.36
2022-08-31T11:15:02.004Z,59.56
2022-08-31T11:16:02.056Z,60.06
2022-08-31T11:17:01.981Z,60.06
2022-08-31T11:18:01.989Z,61.46
2022-08-31T11:19:04.115Z,60.86
2022-08-31T11:20:01.997Z,61.07
2022-08-31T11:21:01.944Z,60.89
2022-08-31T11:22:01.904Z,61.49
2022-08-31T11:23:01.906Z,61.79
2022-08-31T11:24:01.880Z,61.89
2022-08-31T11:25:01.935Z,63.09
2022-08-31T11:26:01.849Z,62.99
2022-08-31T11:27:01.860Z,63.62
2022-08-31T11:28:01.836Z,63.82
2022-08-31T11:29:01.851Z,63.72
2022-08-31T11:30:01.901Z,62.59
2022-08-31T11:31:01.872Z,62.49
2022-08-31T11:32:01.813Z,62.49
2022-08-31T11:33:01.796Z,61.96
2022-08-31T11:34:17.668Z,61.76
2022-08-31T11:35:01.759Z,62.06
2022-08-31T11:36:06.399Z,62.56
2022-08-31T11:37:01.729Z,62.76
2022-08-31T11:38:01.688Z,63.06
2022-08-31T11:39:01.698Z,63.26
2022-08-31T11:40:01.736Z,63.13
2022-08-31T11:41:01.722Z,63.23
2022-08-31T11:42:01.684Z,62.93
2022-08-31T11:43:01.682Z,62.83
2022-08-31T11:44:01.638Z,63.63
2022-08-31T11:45:01.630Z,63.73
2022-08-31T11:46:01.659Z,64.03
2022-08-31T11:47:01.646Z,64.83
2022-08-31T11:48:01.607Z,64.90
2022-08-31T11:49:01.599Z,65.50
2022-08-31T11:50:01.576Z,65.90
2022-08-31T11:51:01.554Z,66.30
2022-08-31T11:52:01.586Z,67.19
2022-08-31T11:53:01.536Z,65.90
2022-08-31T11:54:01.488Z,66.73
2022-08-31T11:55:01.500Z,67.72
2022-08-31T11:56:01.482Z,67.90
2022-08-31T11:57:01.478Z,67.13
2022-08-31T11:58:01.549Z,66.89
2022-08-31T11:59:01.468Z,66.80
2022-08-31T12:00:01.435Z,66.89
2022-08-31T12:01:01.418Z,66.80
2022-08-31T12:02:01.462Z,66.09
2022-08-31T12:03:01.442Z,66.80
2022-08-31T12:04:01.412Z,67.19
2022-08-31T12:05:01.479Z,67.40
2022-08-31T12:06:01.345Z,68.40
2022-08-31T12:07:01.420Z,68.76
2022-08-31T12:08:01.321Z,67.26
2022-08-31T12:09:01.348Z,66.13
2022-08-31T12:10:01.323Z,65.50
2022-08-31T12:11:01.322Z,65.80
2022-08-31T12:12:01.254Z,65.61
2022-08-31T12:13:01.280Z,64.71
2022-08-31T12:14:01.354Z,64.81
2022-08-31T12:15:01.252Z,65.37
2022-08-31T12:16:01.437Z,64.15
2022-08-31T12:17:01.259Z,62.45
2022-08-31T12:18:01.208Z,62.85
2022-08-31T12:19:01.185Z,62.95
2022-08-31T12:20:02.087Z,64.34
2022-08-31T12:21:01.164Z,64.54
2022-08-31T12:22:01.150Z,64.34
2022-08-31T12:23:01.159Z,63.18
2022-08-31T12:24:01.124Z,62.78
2022-08-31T12:25:01.301Z,62.61
2022-08-31T12:26:01.082Z,63.01
2022-08-31T12:27:01.087Z,62.74
2022-08-31T12:28:01.068Z,63.31
2022-08-31T12:29:01.092Z,62.74
2022-08-31T12:30:01.058Z,62.84
2022-08-31T12:31:01.122Z,62.54
2022-08-31T12:32:01.000Z,62.15
2022-08-31T12:33:01.002Z,61.85
2022-08-31T12:34:00.996Z,62.37
2022-08-31T12:35:01.054Z,63.47
2022-08-31T12:36:01.005Z,62.97
2022-08-31T12:37:01.018Z,62.97
2022-08-31T12:38:00.922Z,62.27
2022-08-31T12:39:00.932Z,62.48
2022-08-31T12:40:00.927Z,62.67
2022-08-31T12:41:00.910Z,62.57
2022-08-31T12:42:00.890Z,62.77
2022-08-31T12:43:00.910Z,62.27
2022-08-31T12:44:00.846Z,62.57
2022-08-31T12:45:00.861Z,62.18
2022-08-31T12:46:00.903Z,62.37
2022-08-31T12:47:00.829Z,62.54
2022-08-31T12:48:00.804Z,62.84
2022-08-31T12:49:00.853Z,62.54
2022-08-31T12:50:00.777Z,62.01
2022-08-31T12:51:00.792Z,62.01
2022-08-31T12:52:00.749Z,61.58
2022-08-31T12:53:00.785Z,61.22